createdAt,value
2019-03-20T00:01:14.659Z,76.48
2019-03-20T00:03:46.398Z,76.47
2019-03-20T00:06:18.192Z,76.58
2019-03-20T00:08:50.002Z,76.40
2019-03-20T00:11:21.722Z,76.29
2019-03-20T00:13:53.536Z,76.07
2019-03-20T00:16:25.599Z,76.27
2019-03-20T00:18:57.310Z,75.91
2019-03-20T00:21:29.030Z,75.98
2019-03-20T00:24:00.820Z,76.83
2019-03-20T00:26:32.545Z,76.47
2019-03-20T00:29:04.334Z,76.50
2019-03-20T00:31:37.202Z,77.28
2019-03-20T00:34:09.974Z,77.06
2019-03-20T00:36:42.036Z,76.96
2019-03-20T00:39:13.817Z,77.23
2019-03-20T00:41:45.536Z,76.60
2019-03-20T00:44:17.240Z,76.75
2019-03-20T00:46:49.314Z,77.45
2019-03-20T00:49:22.080Z,77.37
2019-03-20T00:51:53.808Z,77.17
2019-03-20T00:54:25.603Z,77.71
2019-03-20T00:56:57.356Z,78.20
2019-03-20T00:59:29.137Z,77.92
2019-03-20T01:02:01.187Z,77.67
2019-03-20T01:04:33.179Z,77.97
2019-03-20T01:07:05.049Z,77.92
2019-03-20T01:09:36.833Z,78.35
2019-03-20T01:12:09.938Z,78.09
2019-03-20T01:14:41.723Z,78.64
2019-03-20T01:17:13.530Z,78.26
2019-03-20T01:19:45.236Z,77.44
2019-03-20T01:22:16.961Z,77.79
2019-03-20T01:24:48.739Z,77.63
2019-03-20T01:27:21.424Z,78.06
2019-03-20T01:29:53.464Z,77.74
2019-03-20T01:32:25.189Z,77.42
2019-03-20T01:34:56.884Z,78.07
2019-03-20T01:37:28.669Z,78.06
2019-03-20T01:40:00.717Z,77.87
2019-03-20T01:42:33.504Z,78.18
2019-03-20T01:45:05.749Z,78.48
2019-03-20T01:47:37.496Z,78.22
2019-03-20T01:50:10.218Z,78.14
2019-03-20T01:52:41.944Z,77.41
2019-03-20T01:55:13.805Z,77.62
2019-03-20T01:57:46.499Z,78.07
2019-03-20T02:00:18.293Z,77.83
2019-03-20T02:02:50.310Z,77.57
2019-03-20T02:05:22.029Z,77.50
2019-03-20T02:07:53.825Z,77.69
2019-03-20T02:10:25.683Z,77.64
2019-03-20T02:12:58.861Z,77.75
2019-03-20T02:15:38.617Z,77.45
2019-03-20T02:18:04.257Z,77.74
2019-03-20T02:20:35.974Z,77.62
2019-03-20T02:23:07.770Z,77.53
2019-03-20T02:25:39.905Z,77.25
2019-03-20T02:28:11.611Z,76.46
2019-03-20T02:30:43.396Z,76.46
2019-03-20T02:33:15.287Z,77.40
2019-03-20T02:35:51.851Z,77.47
2019-03-20T02:38:20.397Z,76.93
2019-03-20T02:40:52.103Z,77.43
2019-03-20T02:43:24.006Z,77.84
2019-03-20T02:45:55.678Z,77.97
2019-03-20T02:48:27.397Z,78.46
2019-03-20T02:50:59.116Z,78.49
2019-03-20T02:53:30.838Z,78.16
2019-03-20T02:56:02.620Z,78.05
2019-03-20T02:58:35.340Z,78.71
2019-03-20T03:01:07.053Z,78.54
2019-03-20T03:03:39.943Z,78.78
2019-03-20T03:06:11.633Z,78.35
2019-03-20T03:08:43.425Z,78.66
2019-03-20T03:11:15.213Z,79.35
2019-03-20T03:13:46.968Z,79.07
2019-03-20T03:16:18.752Z,78.84
2019-03-20T03:18:50.457Z,78.81
2019-03-20T03:21:22.274Z,78.93
2019-03-20T03:23:53.989Z,78.67
2019-03-20T03:26:25.966Z,78.00
2019-03-20T03:28:57.690Z,77.64
2019-03-20T03:31:29.409Z,77.39
2019-03-20T03:34:01.162Z,77.95
2019-03-20T03:36:32.926Z,78.03
2019-03-20T03:39:07.307Z,77.97
2019-03-20T03:41:39.543Z,77.90
2019-03-20T03:44:11.956Z,77.58
2019-03-20T03:46:43.656Z,78.23
2019-03-20T03:49:15.512Z,78.85
2019-03-20T03:51:47.528Z,79.13
2019-03-20T03:54:19.328Z,78.58
2019-03-20T03:56:51.466Z,78.51
2019-03-20T03:59:23.207Z,79.08
2019-03-20T04:01:54.990Z,78.94
2019-03-20T04:04:26.784Z,79.17
2019-03-20T04:06:58.650Z,78.65
2019-03-20T04:09:30.393Z,78.45
2019-03-20T04:12:02.167Z,78.43
2019-03-20T04:14:34.006Z,77.81
2019-03-20T04:17:22.536Z,78.21
2019-03-20T04:19:54.282Z,78.68
2019-03-20T04:22:25.999Z,77.94
2019-03-20T04:24:57.986Z,78.56
2019-03-20T04:27:29.792Z,79.13
2019-03-20T04:30:01.593Z,78.99
2019-03-20T04:32:34.696Z,78.64
2019-03-20T04:35:06.684Z,78.95
2019-03-20T04:37:38.489Z,79.29
2019-03-20T04:40:11.235Z,79.02
2019-03-20T04:42:42.958Z,78.42
2019-03-20T04:45:14.932Z,78.77
2019-03-20T04:47:46.822Z,78.75
2019-03-20T04:50:19.146Z,78.55
2019-03-20T04:52:51.014Z,78.60
2019-03-20T04:55:22.955Z,78.70
2019-03-20T04:57:54.738Z,78.66
2019-03-20T05:00:26.470Z,79.40
2019-03-20T05:02:58.401Z,79.77
2019-03-20T05:05:30.205Z,78.93
2019-03-20T05:08:02.069Z,79.43
2019-03-20T05:10:33.958Z,79.37
2019-03-20T05:13:06.006Z,79.04
2019-03-20T05:15:37.892Z,79.35
2019-03-20T05:18:09.830Z,79.03
2019-03-20T05:20:41.788Z,79.29
2019-03-20T05:23:13.699Z,79.43
2019-03-20T05:25:45.752Z,79.84
2019-03-20T05:28:18.127Z,79.95
2019-03-20T05:30:50.048Z,79.51
2019-03-20T05:33:21.989Z,78.21
2019-03-20T05:35:53.815Z,79.19
2019-03-20T05:38:25.743Z,78.98
2019-03-20T05:40:57.644Z,79.10
2019-03-20T05:43:29.730Z,79.77
2019-03-20T05:46:02.998Z,80.11
2019-03-20T05:48:34.689Z,79.97
2019-03-20T05:51:06.564Z,79.28
2019-03-20T05:53:38.268Z,79.50
2019-03-20T05:56:10.195Z,79.42
2019-03-20T05:58:41.908Z,78.80
2019-03-20T06:01:13.650Z,78.53
2019-03-20T06:03:45.362Z,78.66
2019-03-20T06:06:18.266Z,79.40
2019-03-20T06:08:49.988Z,79.83
2019-03-20T06:11:21.799Z,80.04
2019-03-20T06:13:53.607Z,79.99
2019-03-20T06:16:25.419Z,80.23
2019-03-20T06:18:57.284Z,80.41
2019-03-20T06:21:29.991Z,80.50
2019-03-20T06:24:01.710Z,80.74
2019-03-20T06:26:33.748Z,80.81
2019-03-20T06:29:05.527Z,80.92
2019-03-20T06:31:37.243Z,80.72
2019-03-20T06:34:10.024Z,80.89
2019-03-20T06:36:41.746Z,81.13
2019-03-20T06:39:13.538Z,81.31
2019-03-20T06:41:45.377Z,81.40
2019-03-20T06:44:17.133Z,81.51
2019-03-20T06:46:49.003Z,81.64
2019-03-20T06:49:20.734Z,81.88
2019-03-20T06:51:52.738Z,81.63
2019-03-20T06:54:24.533Z,81.48
2019-03-20T06:56:56.256Z,81.41
2019-03-20T07:00:30.478Z,81.13
2019-03-20T07:03:03.544Z,79.97
2019-03-20T07:06:10.392Z,80.57
2019-03-20T07:09:05.812Z,80.33
2019-03-20T07:11:40.566Z,79.82
2019-03-20T07:14:12.300Z,79.44
2019-03-20T07:16:44.312Z,78.37
2019-03-20T07:19:16.093Z,78.67
2019-03-20T07:21:47.890Z,78.19
2019-03-20T07:24:19.683Z,78.32
2019-03-20T07:26:51.826Z,78.51
2019-03-20T07:29:23.554Z,78.32
2019-03-20T07:31:55.345Z,76.64
2019-03-20T07:34:27.084Z,76.58
2019-03-20T07:36:58.818Z,77.16
2019-03-20T07:39:31.014Z,75.97
2019-03-20T07:42:02.819Z,76.29
2019-03-20T07:44:34.879Z,76.27
2019-03-20T07:47:06.734Z,76.22
2019-03-20T07:49:38.460Z,75.50
2019-03-20T07:52:10.191Z,75.52
2019-03-20T07:54:41.884Z,74.87
2019-03-20T07:57:13.702Z,74.21
2019-03-20T07:59:45.746Z,74.43
2019-03-20T08:02:17.522Z,74.11
2019-03-20T08:04:50.170Z,73.32
2019-03-20T08:07:21.872Z,73.26
2019-03-20T08:09:53.585Z,74.02
2019-03-20T08:12:25.309Z,74.97
2019-03-20T08:14:57.093Z,73.42
2019-03-20T08:17:28.841Z,73.12
2019-03-20T08:20:00.542Z,71.75
2019-03-20T08:22:32.251Z,71.62
2019-03-20T08:25:04.035Z,72.30
2019-03-20T08:27:37.203Z,72.01
2019-03-20T08:30:13.732Z,71.54
2019-03-20T08:32:45.706Z,70.92
2019-03-20T08:35:18.643Z,70.46
2019-03-20T08:37:50.424Z,69.33
2019-03-20T08:40:22.253Z,69.27
2019-03-20T08:45:43.567Z,64.75
2019-03-20T08:48:15.525Z,64.90
2019-03-20T08:50:47.294Z,62.28
2019-03-20T08:53:19.000Z,61.88
2019-03-20T08:55:51.006Z,56.36
2019-03-20T08:58:33.100Z,58.71
2019-03-20T09:01:05.013Z,56.18
2019-03-20T09:03:36.707Z,56.82
2019-03-20T09:06:08.622Z,56.93
2019-03-20T09:08:40.335Z,57.07
2019-03-20T09:11:12.099Z,56.61
2019-03-20T09:13:43.884Z,57.08
2019-03-20T09:16:15.700Z,58.52
2019-03-20T09:18:47.709Z,58.59
2019-03-20T09:21:20.477Z,59.04
2019-03-20T09:23:52.829Z,59.79
2019-03-20T09:26:24.705Z,57.81
2019-03-20T09:28:56.440Z,56.30
2019-03-20T09:31:28.205Z,57.24
2019-03-20T09:33:59.953Z,55.57
2019-03-20T09:36:42.407Z,56.28
2019-03-20T09:39:08.087Z,54.53
2019-03-20T09:41:39.781Z,56.10
2019-03-20T09:44:11.494Z,55.84
2019-03-20T09:46:43.274Z,55.59
2019-03-20T09:49:15.033Z,54.98
2019-03-20T09:51:47.008Z,56.29
2019-03-20T09:54:18.901Z,55.50
2019-03-20T09:56:50.939Z,53.63
2019-03-20T09:59:22.916Z,53.84
2019-03-20T10:01:54.953Z,53.87
2019-03-20T10:04:26.728Z,52.20
2019-03-20T10:06:58.427Z,51.78
2019-03-20T10:09:30.251Z,52.66
2019-03-20T10:12:02.225Z,51.88
2019-03-20T10:14:34.095Z,52.86
2019-03-20T10:17:06.092Z,52.34
2019-03-20T10:19:37.821Z,51.80
2019-03-20T10:22:09.505Z,52.57
2019-03-20T10:24:41.574Z,52.66
2019-03-20T10:27:13.265Z,53.42
2019-03-20T10:29:45.311Z,53.20
2019-03-20T10:32:17.086Z,52.51
2019-03-20T10:34:48.832Z,49.97
2019-03-20T10:37:20.917Z,50.71
2019-03-20T10:39:52.666Z,49.12
2019-03-20T10:42:24.401Z,50.47
2019-03-20T10:44:56.251Z,52.29
2019-03-20T10:47:27.984Z,51.95
2019-03-20T10:49:59.763Z,54.48
2019-03-20T10:52:31.580Z,53.98
2019-03-20T10:55:07.934Z,53.28
2019-03-20T10:57:40.102Z,49.75
2019-03-20T11:00:16.376Z,46.61
2019-03-20T11:02:48.627Z,47.91
2019-03-20T11:05:20.925Z,48.45
2019-03-20T11:07:52.805Z,47.59
2019-03-20T11:10:24.881Z,48.86
2019-03-20T11:12:56.923Z,50.94
2019-03-20T11:15:29.896Z,52.12
2019-03-20T11:18:01.770Z,50.19
2019-03-20T11:20:33.599Z,52.72
2019-03-20T11:23:05.479Z,47.22
2019-03-20T11:25:37.288Z,48.11
2019-03-20T11:28:09.607Z,46.75
2019-03-20T11:30:41.516Z,47.73
2019-03-20T11:33:13.251Z,49.62
2019-03-20T11:35:45.211Z,43.66
2019-03-20T11:38:17.030Z,46.07
2019-03-20T11:40:48.835Z,44.52
2019-03-20T11:43:20.650Z,48.76
2019-03-20T11:45:52.807Z,46.60
2019-03-20T11:48:24.629Z,44.14
2019-03-20T11:50:56.459Z,43.68
2019-03-20T11:53:28.284Z,46.50
2019-03-20T11:56:01.169Z,43.72
2019-03-20T11:58:32.996Z,44.98
2019-03-20T12:01:05.121Z,42.37
2019-03-20T12:03:36.906Z,43.24
2019-03-20T12:06:09.989Z,43.71
2019-03-20T12:08:41.802Z,43.77
2019-03-20T12:11:15.835Z,43.73
2019-03-20T12:13:47.983Z,43.93
2019-03-20T12:16:19.819Z,42.05
2019-03-20T12:18:51.634Z,42.76
2019-03-20T12:21:23.435Z,42.39
2019-03-20T12:23:55.189Z,42.00
2019-03-20T12:26:27.034Z,39.32
2019-03-20T12:28:59.329Z,42.74
2019-03-20T12:31:31.341Z,44.12
2019-03-20T12:34:03.139Z,38.87
2019-03-20T12:36:35.074Z,39.01
2019-03-20T12:39:09.617Z,41.65
2019-03-20T12:41:41.453Z,38.08
2019-03-20T12:44:13.508Z,41.25
2019-03-20T12:46:46.413Z,37.65
2019-03-20T12:49:18.241Z,38.16
2019-03-20T12:51:50.995Z,41.10
2019-03-20T12:54:22.897Z,36.12
2019-03-20T12:56:54.661Z,38.11
2019-03-20T12:59:26.425Z,40.79
2019-03-20T13:01:58.257Z,42.55
2019-03-20T13:04:30.069Z,40.99
2019-03-20T13:07:01.838Z,41.48
2019-03-20T13:09:33.617Z,37.85
2019-03-20T13:12:05.535Z,35.46
2019-03-20T13:14:37.500Z,37.65
2019-03-20T13:17:10.232Z,37.32
2019-03-20T13:19:42.093Z,37.47
2019-03-20T13:22:13.931Z,36.43
2019-03-20T13:24:46.105Z,35.14
2019-03-20T13:27:18.011Z,33.93
2019-03-20T13:29:49.830Z,34.49
2019-03-20T13:32:21.954Z,34.58
2019-03-20T13:34:53.699Z,33.48
2019-03-20T13:37:25.894Z,38.12
2019-03-20T13:39:57.686Z,37.82
2019-03-20T13:42:29.894Z,36.62
2019-03-20T13:45:01.768Z,30.41
2019-03-20T13:47:33.529Z,31.86
2019-03-20T13:50:05.971Z,35.65
2019-03-20T13:52:37.846Z,36.66
2019-03-20T13:55:10.498Z,35.67
2019-03-20T13:57:42.708Z,35.08
2019-03-20T14:00:21.307Z,34.10
2019-03-20T14:02:53.637Z,33.35
2019-03-20T14:05:25.545Z,31.91
2019-03-20T14:07:57.419Z,36.68
2019-03-20T14:10:29.264Z,34.29
2019-03-20T14:13:01.197Z,34.94
2019-03-20T14:15:33.013Z,34.40
2019-03-20T14:18:04.914Z,35.20
2019-03-20T14:20:36.810Z,29.60
2019-03-20T14:23:10.068Z,33.76
2019-03-20T14:25:42.052Z,33.92
2019-03-20T14:28:13.770Z,34.12
2019-03-20T14:30:45.601Z,34.29
2019-03-20T14:33:17.438Z,31.99
2019-03-20T14:35:49.277Z,31.33
2019-03-20T14:38:21.439Z,32.64
2019-03-20T14:40:53.240Z,33.00
2019-03-20T14:43:25.053Z,33.27
2019-03-20T14:45:56.987Z,31.62
2019-03-20T14:48:28.747Z,33.11
2019-03-20T14:51:01.617Z,30.74
2019-03-20T14:53:33.434Z,33.58
2019-03-20T14:56:05.432Z,33.11
2019-03-20T14:58:37.622Z,32.80
2019-03-20T15:01:10.094Z,33.31
2019-03-20T15:03:42.284Z,35.20
2019-03-20T15:06:14.455Z,31.78
2019-03-20T15:08:46.186Z,30.82
2019-03-20T15:11:18.034Z,34.11
2019-03-20T15:13:49.794Z,30.62
2019-03-20T15:16:22.225Z,30.06
2019-03-20T15:18:54.038Z,31.59
2019-03-20T15:21:25.867Z,32.56
2019-03-20T15:23:57.651Z,30.63
2019-03-20T15:26:31.255Z,30.01
2019-03-20T15:29:03.036Z,31.48
2019-03-20T15:31:34.821Z,33.31
2019-03-20T15:34:06.787Z,31.79
2019-03-20T15:36:38.589Z,32.33
2019-03-20T15:39:10.406Z,30.97
2019-03-20T15:41:42.297Z,30.47
2019-03-20T15:44:14.101Z,30.50
2019-03-20T15:46:45.925Z,31.31
2019-03-20T15:49:17.698Z,31.92
2019-03-20T15:51:49.547Z,30.96
2019-03-20T15:54:21.374Z,31.97
2019-03-20T15:56:56.013Z,29.08
2019-03-20T15:59:28.631Z,30.34
2019-03-20T16:02:00.569Z,30.75
2019-03-20T16:04:32.435Z,31.19
2019-03-20T16:07:04.299Z,30.41
2019-03-20T16:09:36.052Z,28.98
2019-03-20T16:12:07.957Z,30.98
2019-03-20T16:14:40.167Z,29.96
2019-03-20T16:17:12.373Z,29.50
2019-03-20T16:19:44.169Z,30.43
2019-03-20T16:22:16.041Z,29.88
2019-03-20T16:24:47.806Z,30.64
2019-03-20T16:27:19.627Z,29.78
2019-03-20T16:29:51.936Z,30.94
2019-03-20T16:32:23.706Z,31.30
2019-03-20T16:34:55.607Z,30.74
2019-03-20T16:37:27.333Z,30.76
2019-03-20T16:39:59.150Z,31.48
2019-03-20T16:42:30.969Z,32.02
2019-03-20T16:45:02.753Z,30.61
2019-03-20T16:47:34.588Z,30.95
2019-03-20T16:50:07.656Z,31.83
2019-03-20T16:52:39.494Z,32.91
2019-03-20T16:55:12.296Z,31.74
2019-03-20T16:57:44.547Z,32.29
2019-03-20T17:00:25.617Z,33.43
2019-03-20T17:02:57.641Z,35.52
2019-03-20T17:05:30.048Z,34.82
2019-03-20T17:08:01.970Z,35.55
2019-03-20T17:10:38.815Z,37.21
2019-03-20T17:13:10.626Z,37.63
2019-03-20T17:15:42.823Z,38.96
2019-03-20T17:18:14.769Z,40.87
2019-03-20T17:20:46.687Z,40.48
2019-03-20T17:23:18.609Z,41.43
2019-03-20T17:25:51.703Z,40.49
2019-03-20T17:28:23.904Z,40.69
2019-03-20T17:30:55.758Z,39.29
2019-03-20T17:33:28.449Z,40.78
2019-03-20T17:36:00.207Z,39.95
2019-03-20T17:38:32.074Z,42.70
2019-03-20T17:41:03.913Z,43.66
2019-03-20T17:43:35.748Z,46.26
2019-03-20T17:46:08.116Z,45.84
2019-03-20T17:48:40.063Z,46.10
2019-03-20T17:51:12.244Z,46.88
2019-03-20T17:53:44.028Z,47.62
2019-03-20T17:56:15.772Z,48.31
2019-03-20T17:58:47.678Z,48.19
2019-03-20T18:01:19.433Z,49.64
2019-03-20T18:03:51.277Z,50.10
2019-03-20T18:06:23.115Z,50.41
2019-03-20T18:08:54.950Z,51.58
2019-03-20T18:11:26.701Z,51.29
2019-03-20T18:13:58.522Z,51.55
2019-03-20T18:16:30.275Z,51.90
2019-03-20T18:19:02.364Z,52.21
2019-03-20T18:21:34.256Z,52.42
2019-03-20T18:24:06.355Z,53.67
2019-03-20T18:26:38.159Z,54.01
2019-03-20T18:29:09.915Z,53.38
2019-03-20T18:31:45.977Z,53.52
2019-03-20T18:34:15.639Z,53.73
2019-03-20T18:36:47.695Z,54.70
2019-03-20T18:39:20.655Z,54.96
2019-03-20T18:41:57.661Z,55.52
2019-03-20T18:44:26.093Z,55.19
2019-03-20T18:46:57.866Z,55.54
2019-03-20T18:49:29.650Z,54.62
2019-03-20T18:52:01.374Z,54.29
2019-03-20T18:54:33.153Z,54.93
2019-03-20T18:57:04.953Z,55.46
2019-03-20T18:59:36.695Z,55.26
2019-03-20T19:02:08.713Z,55.38
2019-03-20T19:04:40.756Z,55.52
2019-03-20T19:07:12.471Z,55.29
2019-03-20T19:09:44.350Z,55.28
2019-03-20T19:12:16.275Z,55.58
2019-03-20T19:14:48.292Z,55.64
2019-03-20T19:17:20.114Z,56.14
2019-03-20T19:19:52.008Z,56.26
2019-03-20T19:22:24.003Z,55.94
2019-03-20T19:24:55.833Z,56.93
2019-03-20T19:27:27.776Z,56.43
2019-03-20T19:29:59.666Z,56.61
2019-03-20T19:32:31.433Z,56.46
2019-03-20T19:35:03.288Z,57.27
2019-03-20T19:37:34.997Z,57.20
2019-03-20T19:40:07.485Z,56.90
2019-03-20T19:42:39.201Z,56.67
2019-03-20T19:45:11.593Z,58.05
2019-03-20T19:47:43.458Z,58.04
2019-03-20T19:50:15.349Z,58.01
2019-03-20T19:52:47.197Z,58.37
2019-03-20T19:55:19.290Z,59.72
2019-03-20T19:57:51.009Z,59.58
2019-03-20T20:00:22.910Z,59.66
2019-03-20T20:02:54.874Z,59.17
2019-03-20T20:05:26.740Z,59.75
2019-03-20T20:07:58.459Z,59.49
2019-03-20T20:10:30.187Z,59.21
2019-03-20T20:13:02.045Z,59.63
2019-03-20T20:15:33.917Z,60.40
2019-03-20T20:18:06.123Z,60.68
2019-03-20T20:20:38.083Z,61.13
2019-03-20T20:23:11.428Z,61.68
2019-03-20T20:25:43.229Z,61.66
2019-03-20T20:28:14.947Z,62.54
2019-03-20T20:30:46.657Z,62.80
2019-03-20T20:33:18.798Z,63.54
2019-03-20T20:35:50.593Z,63.33
2019-03-20T20:38:22.311Z,62.78
2019-03-20T20:40:54.142Z,63.64
2019-03-20T20:43:26.462Z,61.87
2019-03-20T20:45:59.038Z,62.82
2019-03-20T20:48:30.780Z,62.93
2019-03-20T20:51:02.538Z,64.74
2019-03-20T20:53:34.244Z,64.22
2019-03-20T20:56:06.189Z,64.77
2019-03-20T20:58:37.913Z,64.61
2019-03-20T21:01:09.713Z,63.23
2019-03-20T21:03:41.469Z,63.75
2019-03-20T21:06:13.246Z,64.00
2019-03-20T21:08:44.947Z,63.63
2019-03-20T21:11:16.676Z,64.18
2019-03-20T21:13:48.382Z,64.26
2019-03-20T21:16:20.992Z,66.16
2019-03-20T21:19:32.603Z,65.48
2019-03-20T21:23:03.539Z,66.00
2019-03-20T21:25:36.416Z,66.30
2019-03-20T21:29:00.787Z,67.26
2019-03-20T21:31:48.239Z,67.29
2019-03-20T21:35:36.986Z,67.67
2019-03-20T21:38:07.934Z,67.84
2019-03-20T21:41:32.828Z,67.81
2019-03-20T21:44:42.973Z,68.42
2019-03-20T21:47:35.738Z,67.78
2019-03-20T21:51:11.704Z,67.42
2019-03-20T21:54:41.717Z,67.73
2019-03-20T21:58:20.542Z,66.84
2019-03-20T22:02:01.290Z,67.74
2019-03-20T22:04:33.878Z,68.88
2019-03-20T22:07:11.160Z,68.83
2019-03-20T22:11:00.381Z,69.01
2019-03-20T22:13:58.157Z,68.74
2019-03-20T22:17:50.186Z,68.69
2019-03-20T22:20:46.379Z,68.15
2019-03-20T22:24:27.025Z,69.49
2019-03-20T22:28:09.413Z,69.84
2019-03-20T22:30:41.968Z,69.82
2019-03-20T22:34:07.361Z,70.33
2019-03-20T22:36:42.842Z,69.71
2019-03-20T22:40:29.893Z,70.00
2019-03-20T22:43:29.705Z,70.47
2019-03-20T22:47:14.493Z,69.82
2019-03-20T22:50:19.108Z,69.63
2019-03-20T22:53:36.664Z,69.62
2019-03-20T22:56:56.012Z,69.26
2019-03-20T22:59:28.610Z,69.90
2019-03-20T23:02:19.432Z,71.26
2019-03-20T23:04:56.616Z,71.55
2019-03-20T23:07:29.357Z,71.47
2019-03-20T23:10:02.327Z,71.50
2019-03-20T23:12:35.622Z,71.95
2019-03-20T23:15:11.088Z,71.96
2019-03-20T23:17:43.605Z,70.65
2019-03-20T23:20:19.988Z,71.75
2019-03-20T23:22:52.753Z,72.15
2019-03-20T23:25:25.289Z,71.86
2019-03-20T23:27:58.163Z,71.68
2019-03-20T23:30:30.685Z,71.77
2019-03-20T23:33:03.211Z,72.11
2019-03-20T23:35:35.765Z,71.68
2019-03-20T23:38:08.261Z,71.82
2019-03-20T23:40:40.764Z,71.84
2019-03-20T23:43:13.689Z,72.03
2019-03-20T23:45:46.196Z,72.08
2019-03-20T23:48:49.446Z,72.75
2019-03-20T23:51:23.747Z,72.61
2019-03-20T23:53:57.540Z,73.14
2019-03-20T23:56:32.862Z,72.62
2019-03-20T23:59:05.998Z,72.91
